Detroit, Michigan
Traffic Map
Current Weather Conditions
Detroit, Michigan
Overcast Rain Showers
Overcast
15°
Feels Like: 15°
Wind Chill: 15° Ceiling: 7000
Heat Index: 15° Visibility: 6mi
Dew Point: 13° Wind: 7mph
Humidity: 88% Direction: 120° (ESE)
Pressure: 29.92in Gusts: 0mph
Raw Report DataCYQG 281800Z 12006KT 6SM -SHRA BR SCT039 OVC070 15/13 A2992 RMK CU4AC4 SLP135 DENSITY ALT 700FT
Traffic Incident Summary
Active as of:
Severity:
Category:
InformationThere was an issue retrieving the traffic information for this location. Please try a different location or try again shortly.
Advertisements
Track Severe Weather on mobile